sensor_id;sensor_type;location;lat;lon;timestamp;P1;durP1;ratioP1;P2;durP2;ratioP2
76708;SDS011;74360;44.410;0.216;2024-03-07T00:00:32;7.40;;;3.77;;
76708;SDS011;74360;44.410;0.216;2024-03-07T00:06:04;12.83;;;4.83;;
76708;SDS011;74360;44.410;0.216;2024-03-07T00:11:39;10.60;;;4.77;;
76708;SDS011;74360;44.410;0.216;2024-03-07T00:17:09;14.53;;;5.77;;
76708;SDS011;74360;44.410;0.216;2024-03-07T00:22:42;15.27;;;6.27;;
76708;SDS011;74360;44.410;0.216;2024-03-07T00:33:48;14.77;;;5.87;;
76708;SDS011;74360;44.410;0.216;2024-03-07T00:39:20;9.90;;;4.87;;
76708;SDS011;74360;44.410;0.216;2024-03-07T00:44:52;17.27;;;9.07;;
76708;SDS011;74360;44.410;0.216;2024-03-07T00:50:26;14.57;;;6.67;;
76708;SDS011;74360;44.410;0.216;2024-03-07T00:55:58;15.90;;;6.80;;
76708;SDS011;74360;44.410;0.216;2024-03-07T01:01:33;12.77;;;5.93;;
76708;SDS011;74360;44.410;0.216;2024-03-07T01:07:04;13.63;;;6.77;;
76708;SDS011;74360;44.410;0.216;2024-03-07T01:12:38;12.90;;;5.90;;
76708;SDS011;74360;44.410;0.216;2024-03-07T01:18:10;13.33;;;5.43;;
76708;SDS011;74360;44.410;0.216;2024-03-07T01:23:43;12.13;;;6.47;;
76708;SDS011;74360;44.410;0.216;2024-03-07T01:29:16;13.60;;;7.50;;
76708;SDS011;74360;44.410;0.216;2024-03-07T01:34:48;15.97;;;7.00;;
76708;SDS011;74360;44.410;0.216;2024-03-07T01:40:22;8.37;;;4.63;;
76708;SDS011;74360;44.410;0.216;2024-03-07T01:45:55;13.17;;;6.93;;
76708;SDS011;74360;44.410;0.216;2024-03-07T01:51:28;8.30;;;4.30;;
76708;SDS011;74360;44.410;0.216;2024-03-07T01:57:01;10.63;;;6.50;;
76708;SDS011;74360;44.410;0.216;2024-03-07T02:02:34;16.43;;;8.67;;
76708;SDS011;74360;44.410;0.216;2024-03-07T02:08:06;15.77;;;9.50;;
76708;SDS011;74360;44.410;0.216;2024-03-07T02:13:37;12.47;;;5.53;;
76708;SDS011;74360;44.410;0.216;2024-03-07T02:24:46;16.47;;;7.67;;
76708;SDS011;74360;44.410;0.216;2024-03-07T02:30:19;10.37;;;5.57;;
76708;SDS011;74360;44.410;0.216;2024-03-07T02:35:50;9.53;;;4.80;;
76708;SDS011;74360;44.410;0.216;2024-03-07T02:41:24;10.33;;;5.53;;
76708;SDS011;74360;44.410;0.216;2024-03-07T02:46:56;10.40;;;5.03;;
76708;SDS011;74360;44.410;0.216;2024-03-07T02:58:03;11.13;;;4.90;;
76708;SDS011;74360;44.410;0.216;2024-03-07T03:03:36;12.87;;;5.10;;
76708;SDS011;74360;44.410;0.216;2024-03-07T03:14:43;14.57;;;5.67;;
76708;SDS011;74360;44.410;0.216;2024-03-07T03:25:47;14.50;;;5.70;;
76708;SDS011;74360;44.410;0.216;2024-03-07T03:31:20;10.03;;;5.43;;
76708;SDS011;74360;44.410;0.216;2024-03-07T03:36:51;10.40;;;5.47;;
76708;SDS011;74360;44.410;0.216;2024-03-07T03:42:25;10.13;;;5.07;;
76708;SDS011;74360;44.410;0.216;2024-03-07T03:53:30;9.27;;;4.57;;
76708;SDS011;74360;44.410;0.216;2024-03-07T03:59:02;12.63;;;5.30;;
76708;SDS011;74360;44.410;0.216;2024-03-07T04:04:34;9.90;;;4.83;;
76708;SDS011;74360;44.410;0.216;2024-03-07T04:10:09;12.97;;;6.43;;
76708;SDS011;74360;44.410;0.216;2024-03-07T04:15:38;26.37;;;6.47;;
76708;SDS011;74360;44.410;0.216;2024-03-07T04:21:11;14.73;;;6.50;;
76708;SDS011;74360;44.410;0.216;2024-03-07T04:26:44;14.20;;;6.40;;
76708;SDS011;74360;44.410;0.216;2024-03-07T04:37:53;11.63;;;6.10;;
76708;SDS011;74360;44.410;0.216;2024-03-07T04:43:23;12.30;;;6.37;;
76708;SDS011;74360;44.410;0.216;2024-03-07T04:48:55;11.70;;;6.00;;
76708;SDS011;74360;44.410;0.216;2024-03-07T04:54:27;11.17;;;5.33;;
76708;SDS011;74360;44.410;0.216;2024-03-07T04:59:59;9.90;;;5.53;;
76708;SDS011;74360;44.410;0.216;2024-03-07T05:05:31;11.03;;;5.30;;
76708;SDS011;74360;44.410;0.216;2024-03-07T05:11:05;8.80;;;4.67;;
76708;SDS011;74360;44.410;0.216;2024-03-07T05:16:38;10.57;;;4.93;;
76708;SDS011;74360;44.410;0.216;2024-03-07T05:22:14;10.07;;;5.60;;
76708;SDS011;74360;44.410;0.216;2024-03-07T05:27:43;13.07;;;5.63;;
76708;SDS011;74360;44.410;0.216;2024-03-07T05:33:18;12.50;;;5.70;;
76708;SDS011;74360;44.410;0.216;2024-03-07T05:38:49;9.30;;;5.07;;
76708;SDS011;74360;44.410;0.216;2024-03-07T05:44:22;10.57;;;5.03;;
76708;SDS011;74360;44.410;0.216;2024-03-07T05:49:54;9.83;;;5.40;;
76708;SDS011;74360;44.410;0.216;2024-03-07T05:55:27;9.80;;;6.00;;
76708;SDS011;74360;44.410;0.216;2024-03-07T06:06:32;10.87;;;5.50;;
76708;SDS011;74360;44.410;0.216;2024-03-07T06:12:06;10.00;;;5.37;;
76708;SDS011;74360;44.410;0.216;2024-03-07T06:17:37;12.10;;;7.23;;
76708;SDS011;74360;44.410;0.216;2024-03-07T06:23:12;13.13;;;7.23;;
76708;SDS011;74360;44.410;0.216;2024-03-07T06:28:42;7.07;;;3.50;;
76708;SDS011;74360;44.410;0.216;2024-03-07T06:34:14;6.97;;;3.37;;
76708;SDS011;74360;44.410;0.216;2024-03-07T06:39:48;8.30;;;4.00;;
76708;SDS011;74360;44.410;0.216;2024-03-07T06:45:19;7.50;;;4.00;;
76708;SDS011;74360;44.410;0.216;2024-03-07T06:50:53;7.70;;;3.60;;
76708;SDS011;74360;44.410;0.216;2024-03-07T06:56:24;9.27;;;3.93;;
76708;SDS011;74360;44.410;0.216;2024-03-07T07:01:59;9.57;;;4.27;;
76708;SDS011;74360;44.410;0.216;2024-03-07T07:07:30;8.60;;;3.80;;
76708;SDS011;74360;44.410;0.216;2024-03-07T07:18:36;9.50;;;4.07;;
76708;SDS011;74360;44.410;0.216;2024-03-07T07:24:08;6.73;;;3.13;;
76708;SDS011;74360;44.410;0.216;2024-03-07T07:29:42;8.80;;;4.40;;
76708;SDS011;74360;44.410;0.216;2024-03-07T07:35:15;8.93;;;3.80;;
76708;SDS011;74360;44.410;0.216;2024-03-07T07:40:47;6.60;;;3.00;;
76708;SDS011;74360;44.410;0.216;2024-03-07T07:46:20;7.63;;;3.73;;
76708;SDS011;74360;44.410;0.216;2024-03-07T08:02:58;8.67;;;4.20;;
76708;SDS011;74360;44.410;0.216;2024-03-07T08:08:31;10.53;;;3.43;;
76708;SDS011;74360;44.410;0.216;2024-03-07T08:14:03;6.57;;;2.73;;
76708;SDS011;74360;44.410;0.216;2024-03-07T08:25:10;7.50;;;2.00;;
76708;SDS011;74360;44.410;0.216;2024-03-07T08:30:43;10.17;;;2.20;;
76708;SDS011;74360;44.410;0.216;2024-03-07T08:41:48;5.47;;;1.70;;
76708;SDS011;74360;44.410;0.216;2024-03-07T08:47:21;1.97;;;0.90;;
76708;SDS011;74360;44.410;0.216;2024-03-07T08:52:53;3.70;;;0.90;;
76708;SDS011;74360;44.410;0.216;2024-03-07T08:58:26;5.13;;;1.20;;
76708;SDS011;74360;44.410;0.216;2024-03-07T09:04:00;3.10;;;0.73;;
76708;SDS011;74360;44.410;0.216;2024-03-07T09:09:31;1.20;;;0.70;;
76708;SDS011;74360;44.410;0.216;2024-03-07T09:31:43;2.70;;;0.90;;
76708;SDS011;74360;44.410;0.216;2024-03-07T09:37:16;1.93;;;0.90;;
76708;SDS011;74360;44.410;0.216;2024-03-07T09:42:49;3.33;;;0.90;;
76708;SDS011;74360;44.410;0.216;2024-03-07T09:48:20;3.10;;;0.93;;
76708;SDS011;74360;44.410;0.216;2024-03-07T09:53:53;3.03;;;0.90;;
76708;SDS011;74360;44.410;0.216;2024-03-07T09:59:27;2.63;;;0.90;;
76708;SDS011;74360;44.410;0.216;2024-03-07T10:04:59;3.73;;;1.00;;
76708;SDS011;74360;44.410;0.216;2024-03-07T10:10:32;3.53;;;1.20;;
76708;SDS011;74360;44.410;0.216;2024-03-07T10:16:05;4.50;;;1.00;;
76708;SDS011;74360;44.410;0.216;2024-03-07T10:21:37;4.33;;;1.50;;
76708;SDS011;74360;44.410;0.216;2024-03-07T10:27:11;8.37;;;2.10;;
76708;SDS011;74360;44.410;0.216;2024-03-07T10:32:42;6.80;;;1.70;;
76708;SDS011;74360;44.410;0.216;2024-03-07T10:43:48;1.97;;;0.43;;
76708;SDS011;74360;44.410;0.216;2024-03-07T10:49:25;4.07;;;1.03;;
76708;SDS011;74360;44.410;0.216;2024-03-07T10:54:56;2.53;;;0.80;;
76708;SDS011;74360;44.410;0.216;2024-03-07T11:00:32;3.03;;;0.90;;
76708;SDS011;74360;44.410;0.216;2024-03-07T11:17:06;4.73;;;0.83;;
76708;SDS011;74360;44.410;0.216;2024-03-07T11:28:11;4.03;;;1.20;;
76708;SDS011;74360;44.410;0.216;2024-03-07T11:44:51;3.67;;;1.50;;
76708;SDS011;74360;44.410;0.216;2024-03-07T11:50:26;5.00;;;0.83;;
76708;SDS011;74360;44.410;0.216;2024-03-07T11:55:56;4.10;;;1.20;;
76708;SDS011;74360;44.410;0.216;2024-03-07T12:01:31;4.03;;;0.83;;
76708;SDS011;74360;44.410;0.216;2024-03-07T12:18:09;1.30;;;0.40;;
76708;SDS011;74360;44.410;0.216;2024-03-07T12:23:40;2.87;;;0.80;;
76708;SDS011;74360;44.410;0.216;2024-03-07T12:29:12;4.03;;;1.13;;
76708;SDS011;74360;44.410;0.216;2024-03-07T12:34:46;4.27;;;1.13;;
76708;SDS011;74360;44.410;0.216;2024-03-07T12:40:20;4.10;;;0.90;;
76708;SDS011;74360;44.410;0.216;2024-03-07T12:56:54;2.73;;;0.93;;
76708;SDS011;74360;44.410;0.216;2024-03-07T13:02:30;3.97;;;1.10;;
76708;SDS011;74360;44.410;0.216;2024-03-07T13:19:05;4.80;;;1.13;;
76708;SDS011;74360;44.410;0.216;2024-03-07T13:24:37;4.27;;;0.90;;
76708;SDS011;74360;44.410;0.216;2024-03-07T13:30:10;5.93;;;1.13;;
76708;SDS011;74360;44.410;0.216;2024-03-07T13:35:43;2.47;;;0.90;;
76708;SDS011;74360;44.410;0.216;2024-03-07T13:41:15;7.87;;;1.30;;
76708;SDS011;74360;44.410;0.216;2024-03-07T13:46:50;4.27;;;1.10;;
76708;SDS011;74360;44.410;0.216;2024-03-07T13:52:23;5.50;;;1.20;;
76708;SDS011;74360;44.410;0.216;2024-03-07T13:57:57;9.13;;;1.50;;
76708;SDS011;74360;44.410;0.216;2024-03-07T14:25:44;4.00;;;1.00;;
76708;SDS011;74360;44.410;0.216;2024-03-07T14:31:13;4.03;;;1.20;;
76708;SDS011;74360;44.410;0.216;2024-03-07T14:36:47;4.50;;;1.00;;
76708;SDS011;74360;44.410;0.216;2024-03-07T14:42:18;3.83;;;1.00;;
76708;SDS011;74360;44.410;0.216;2024-03-07T14:53:24;4.30;;;0.90;;
76708;SDS011;74360;44.410;0.216;2024-03-07T14:58:58;5.50;;;0.87;;
76708;SDS011;74360;44.410;0.216;2024-03-07T15:10:07;3.63;;;0.80;;
76708;SDS011;74360;44.410;0.216;2024-03-07T15:15:36;3.93;;;0.93;;
76708;SDS011;74360;44.410;0.216;2024-03-07T15:21:10;4.37;;;1.17;;
76708;SDS011;74360;44.410;0.216;2024-03-07T15:32:15;3.73;;;1.00;;
76708;SDS011;74360;44.410;0.216;2024-03-07T15:37:47;3.13;;;1.00;;
76708;SDS011;74360;44.410;0.216;2024-03-07T15:43:18;6.13;;;0.73;;
76708;SDS011;74360;44.410;0.216;2024-03-07T15:48:51;4.23;;;0.90;;
76708;SDS011;74360;44.410;0.216;2024-03-07T15:54:25;4.70;;;1.10;;
76708;SDS011;74360;44.410;0.216;2024-03-07T16:05:29;3.17;;;0.80;;
76708;SDS011;74360;44.410;0.216;2024-03-07T16:11:01;4.00;;;1.10;;
76708;SDS011;74360;44.410;0.216;2024-03-07T16:16:36;2.87;;;0.90;;
76708;SDS011;74360;44.410;0.216;2024-03-07T16:22:06;2.70;;;0.77;;
76708;SDS011;74360;44.410;0.216;2024-03-07T16:27:43;4.10;;;1.10;;
76708;SDS011;74360;44.410;0.216;2024-03-07T16:33:10;3.17;;;1.00;;
76708;SDS011;74360;44.410;0.216;2024-03-07T16:38:43;3.70;;;0.87;;
76708;SDS011;74360;44.410;0.216;2024-03-07T16:44:15;3.13;;;0.90;;
76708;SDS011;74360;44.410;0.216;2024-03-07T16:49:50;2.13;;;0.70;;
76708;SDS011;74360;44.410;0.216;2024-03-07T16:55:20;4.93;;;1.03;;
76708;SDS011;74360;44.410;0.216;2024-03-07T17:00:51;5.30;;;1.20;;
76708;SDS011;74360;44.410;0.216;2024-03-07T17:11:58;5.47;;;2.37;;
76708;SDS011;74360;44.410;0.216;2024-03-07T17:17:32;12.33;;;3.27;;
76708;SDS011;74360;44.410;0.216;2024-03-07T17:23:02;10.43;;;3.97;;
76708;SDS011;74360;44.410;0.216;2024-03-07T17:28:35;5.97;;;2.17;;
76708;SDS011;74360;44.410;0.216;2024-03-07T17:34:08;10.07;;;3.13;;
76708;SDS011;74360;44.410;0.216;2024-03-07T17:39:41;6.87;;;2.40;;
76708;SDS011;74360;44.410;0.216;2024-03-07T17:45:14;4.70;;;1.53;;
76708;SDS011;74360;44.410;0.216;2024-03-07T17:50:45;6.40;;;1.97;;
76708;SDS011;74360;44.410;0.216;2024-03-07T17:56:18;7.30;;;2.63;;
76708;SDS011;74360;44.410;0.216;2024-03-07T18:01:51;6.90;;;2.43;;
76708;SDS011;74360;44.410;0.216;2024-03-07T18:07:23;8.17;;;2.37;;
76708;SDS011;74360;44.410;0.216;2024-03-07T18:12:56;9.10;;;3.00;;
76708;SDS011;74360;44.410;0.216;2024-03-07T18:18:28;13.60;;;4.77;;
76708;SDS011;74360;44.410;0.216;2024-03-07T18:24:01;10.50;;;3.47;;
76708;SDS011;74360;44.410;0.216;2024-03-07T18:35:07;4.67;;;1.70;;
76708;SDS011;74360;44.410;0.216;2024-03-07T18:40:39;7.73;;;2.13;;
76708;SDS011;74360;44.410;0.216;2024-03-07T18:46:13;4.80;;;1.77;;
76708;SDS011;74360;44.410;0.216;2024-03-07T18:51:49;6.33;;;1.50;;
76708;SDS011;74360;44.410;0.216;2024-03-07T18:57:20;6.70;;;2.60;;
76708;SDS011;74360;44.410;0.216;2024-03-07T19:02:51;5.27;;;2.03;;
76708;SDS011;74360;44.410;0.216;2024-03-07T19:08:25;8.63;;;3.80;;
76708;SDS011;74360;44.410;0.216;2024-03-07T19:13:56;8.67;;;2.83;;
76708;SDS011;74360;44.410;0.216;2024-03-07T19:19:30;7.53;;;3.40;;
76708;SDS011;74360;44.410;0.216;2024-03-07T19:25:04;7.03;;;2.57;;
76708;SDS011;74360;44.410;0.216;2024-03-07T19:30:36;8.17;;;2.53;;
76708;SDS011;74360;44.410;0.216;2024-03-07T19:41:40;6.80;;;2.57;;
76708;SDS011;74360;44.410;0.216;2024-03-07T19:47:14;8.70;;;2.30;;
76708;SDS011;74360;44.410;0.216;2024-03-07T19:52:43;6.97;;;2.00;;
76708;SDS011;74360;44.410;0.216;2024-03-07T19:58:14;6.10;;;2.20;;
76708;SDS011;74360;44.410;0.216;2024-03-07T20:03:46;7.57;;;2.10;;
76708;SDS011;74360;44.410;0.216;2024-03-07T20:09:19;6.33;;;1.90;;
76708;SDS011;74360;44.410;0.216;2024-03-07T20:14:52;6.23;;;1.70;;
76708;SDS011;74360;44.410;0.216;2024-03-07T20:20:24;4.83;;;2.07;;
76708;SDS011;74360;44.410;0.216;2024-03-07T20:25:56;5.93;;;1.70;;
76708;SDS011;74360;44.410;0.216;2024-03-07T20:31:29;7.13;;;1.87;;
76708;SDS011;74360;44.410;0.216;2024-03-07T20:37:03;7.53;;;1.80;;
76708;SDS011;74360;44.410;0.216;2024-03-07T20:42:35;9.00;;;2.03;;
76708;SDS011;74360;44.410;0.216;2024-03-07T20:48:10;6.67;;;1.90;;
76708;SDS011;74360;44.410;0.216;2024-03-07T21:04:46;3.77;;;1.60;;
76708;SDS011;74360;44.410;0.216;2024-03-07T21:10:21;4.77;;;1.60;;
76708;SDS011;74360;44.410;0.216;2024-03-07T21:15:52;8.50;;;1.77;;
76708;SDS011;74360;44.410;0.216;2024-03-07T21:21:26;9.43;;;2.13;;
76708;SDS011;74360;44.410;0.216;2024-03-07T21:26:57;7.60;;;1.80;;
76708;SDS011;74360;44.410;0.216;2024-03-07T21:32:29;9.73;;;2.13;;
76708;SDS011;74360;44.410;0.216;2024-03-07T21:38:02;4.30;;;1.63;;
76708;SDS011;74360;44.410;0.216;2024-03-07T21:49:07;5.93;;;2.10;;
76708;SDS011;74360;44.410;0.216;2024-03-07T21:54:40;6.67;;;1.70;;
76708;SDS011;74360;44.410;0.216;2024-03-07T22:00:16;9.07;;;3.07;;
76708;SDS011;74360;44.410;0.216;2024-03-07T22:05:44;10.23;;;2.37;;
76708;SDS011;74360;44.410;0.216;2024-03-07T22:16:49;15.63;;;5.03;;
76708;SDS011;74360;44.410;0.216;2024-03-07T22:27:54;19.13;;;6.73;;
76708;SDS011;74360;44.410;0.216;2024-03-07T22:33:28;10.10;;;3.00;;
76708;SDS011;74360;44.410;0.216;2024-03-07T22:39:00;8.07;;;2.47;;
76708;SDS011;74360;44.410;0.216;2024-03-07T22:44:33;10.93;;;3.33;;
76708;SDS011;74360;44.410;0.216;2024-03-07T22:50:08;11.13;;;2.90;;
76708;SDS011;74360;44.410;0.216;2024-03-07T22:55:40;8.13;;;3.57;;
76708;SDS011;74360;44.410;0.216;2024-03-07T23:01:12;10.10;;;3.23;;
76708;SDS011;74360;44.410;0.216;2024-03-07T23:06:45;6.73;;;1.90;;
76708;SDS011;74360;44.410;0.216;2024-03-07T23:12:19;7.30;;;1.60;;
76708;SDS011;74360;44.410;0.216;2024-03-07T23:17:49;5.83;;;1.50;;
76708;SDS011;74360;44.410;0.216;2024-03-07T23:23:23;8.73;;;2.07;;
76708;SDS011;74360;44.410;0.216;2024-03-07T23:28:54;5.93;;;1.43;;
76708;SDS011;74360;44.410;0.216;2024-03-07T23:34:26;5.30;;;1.40;;
76708;SDS011;74360;44.410;0.216;2024-03-07T23:40:00;4.17;;;1.20;;
76708;SDS011;74360;44.410;0.216;2024-03-07T23:45:32;4.67;;;1.63;;
76708;SDS011;74360;44.410;0.216;2024-03-07T23:51:04;4.80;;;1.70;;
